Aérodrome :
LOGIN :

S'inscrire | Disclaimer

   EN    FR    IT 

 










Légende :    VFR   VFR Marginal   IFR   IFR Intensif   IFR Très Intensif
Visi : 
Plafond : 
>= 8 km
>= 3000ft
5 à 8 km
1000 à 3000 ft
1500m à 5 km
500 à 1000 ft
800 à 1500m
200 à 500 ft
< 800m
< 200 ft
Symboles :   Orages  Brouillard  Fortes neiges  Fortes précipitations  Vent > 20 kt
SIGMETs :   Divers  Orages  Givrage  Turbulence  Onde Orograph.  Cendres Volcan.






- Altitude de l'aérodrome : 913 ft


LFSX - Luxeuil

DERNIER METAR :
  • 100500Z AUTO VRB02KT 9999 FEW020 OVC026 00/M00 Q1028

METARs EXPIRÉS :
  • 100430Z AUTO 32004KT 9000 FEW019 BKN027 00/M00 Q1027
  • 100400Z AUTO 31005KT 9999 SCT034 01/00 Q1027
  • 100330Z AUTO 31004KT 9999 FEW018 OVC032 01/00 Q1027
  • 100300Z AUTO VRB02KT 9999 BKN019 OVC028 01/01 Q1026
  • 100230Z AUTO 00000KT 9999 SCT020 SCT029 BKN035 01/01 Q1026

TAF TAF LFSX
Valide du 09 à 15h jusqu'au 10 à 15h UTC


091400Z 0915/1015 29015KT 9000 BKN016
TEMPO 0915/0924 -RA
TEMPO 1003/1009 4000 BR BKN009
PROB40 1005/1008 2000



MET'MAP, la Météo Aéronautique d'un coup d'oeil ! - Copyright ORBIFLY Décembre 2007 - Disclaimer

ORBIFLY MET'MAP TEAM :

Programmation & Développement : Alexandra Zaïnal
Sur une idée originale de : Baudouin d'Aumeries
Assistance à la programmation : Marc-Olivier Méhu
Soutien technique & logistique : Manuel Goepfert

Contact : metmap@orbifly.com




SOURCES & CREDITS :

   NOAA